Time;durP1;ratioP1;P1;durP2;ratioP2;P2;SDS_P1;SDS_P2;PMS_P1;PMS_P2;Temp;Humidity;BMP_temperature;BMP_pressure;BME280_temperature;BME280_humidity;BME280_pressure;Samples;Min_cycle;Max_cycle;Signal;HPM_P1;HPM_P2
2022/04/05 00:02:06;;;;;;;12.85;11.33;;;;;;;2.08;51.94;93629.57;1665816;85;21034;-50
2022/04/05 00:04:34;;;;;;;11.73;10.53;;;;;;;2.08;51.98;93626.86;1665446;86;20998;-52
2022/04/05 00:07:01;;;;;;;16.27;11.38;;;;;;;2.09;51.70;93625.67;1665439;86;21050;-51
2022/04/05 00:09:30;;;;;;;13.30;11.70;;;;;;;2.09;51.70;93617.53;1665484;86;21573;-51
2022/04/05 00:11:58;;;;;;;19.85;13.98;;;;;;;2.10;51.63;93617.12;1665472;86;21528;-52
2022/04/05 00:17:12;;;;;;;34.67;21.05;;;;;;;2.20;51.80;93612.66;1790622;78;26376;-50
2022/04/05 00:19:41;;;;;;;23.15;15.08;;;;;;;2.17;51.88;93598.58;1759011;80;21057;-50
2022/04/05 00:22:08;;;;;;;25.65;16.30;;;;;;;2.15;51.94;93598.25;1755720;80;22179;-51
2022/04/05 00:24:35;;;;;;;25.75;18.95;;;;;;;2.16;51.93;93597.80;1737960;78;21092;-56
2022/04/05 00:27:04;;;;;;;14.25;12.15;;;;;;;2.17;51.96;93599.94;1736827;81;21005;-55
2022/04/05 00:29:32;;;;;;;12.13;10.82;;;;;;;2.17;51.89;93595.27;1702145;83;21041;-55
2022/04/05 00:31:59;;;;;;;11.03;9.73;;;;;;;2.18;51.70;93598.75;1675728;84;21011;-56
2022/04/05 00:34:27;;;;;;;12.58;10.93;;;;;;;2.20;51.40;93590.37;1704439;83;21230;-56
2022/04/05 00:36:54;;;;;;;11.45;10.25;;;;;;;2.24;51.64;93588.92;1723102;82;20933;-55
2022/04/05 00:39:22;;;;;;;11.57;10.45;;;;;;;2.23;51.57;93597.67;1712955;82;21150;-55
2022/04/05 00:41:51;;;;;;;11.78;10.35;;;;;;;2.23;51.40;93590.88;1698275;83;20986;-54
2022/04/05 00:45:49;;;;;;;14.93;10.35;;;;;;;2.33;51.41;93592.58;1790018;78;25570;-51
2022/04/05 00:48:21;;;;;;;11.53;10.43;;;;;;;2.30;51.16;93594.78;1758252;81;21046;-50
2022/04/05 00:51:02;;;;;;;12.82;11.30;;;;;;;2.31;51.21;93594.95;1728731;79;21823;-56
2022/04/05 00:53:29;;;;;;;14.50;10.72;;;;;;;2.35;50.98;93593.52;1688727;83;21152;-56
2022/04/05 00:55:57;;;;;;;11.22;9.93;;;;;;;2.34;50.91;93583.25;1699704;82;21097;-55
2022/04/05 00:58:24;;;;;;;18.25;11.97;;;;;;;2.35;50.65;93586.13;1695098;83;21108;-55
2022/04/05 01:00:53;;;;;;;12.98;10.00;;;;;;;2.36;50.70;93576.05;1702084;80;21597;-49
2022/04/05 01:06:07;;;;;;;15.78;13.80;;;;;;;2.39;50.79;93565.70;1746374;79;26297;-49
2022/04/05 01:08:36;;;;;;;13.18;11.12;;;;;;;2.33;51.04;93555.95;1708762;81;21106;-50
2022/04/05 01:11:03;;;;;;;16.17;11.80;;;;;;;2.31;50.94;93569.17;1713724;82;21674;-50
2022/04/05 01:13:32;;;;;;;14.30;11.93;;;;;;;2.32;51.31;93565.88;1712994;82;21082;-50
2022/04/05 01:16:00;;;;;;;16.23;12.58;;;;;;;2.31;51.56;93553.50;1711659;83;20967;-49
2022/04/05 01:18:28;;;;;;;13.45;10.72;;;;;;;2.32;51.56;93548.25;1712829;83;21498;-49
2022/04/05 01:20:56;;;;;;;12.33;10.95;;;;;;;2.33;51.24;93546.45;1713611;82;21090;-49
2022/04/05 01:23:23;;;;;;;12.80;10.75;;;;;;;2.36;50.89;93536.10;1711554;82;21157;-48
2022/04/05 01:25:51;;;;;;;11.35;10.25;;;;;;;2.40;50.57;93533.31;1707093;83;21018;-49
2022/04/05 01:28:22;;;;;;;10.90;9.78;;;;;;;2.41;50.52;93532.13;1710064;83;20975;-49
2022/04/05 01:30:51;;;;;;;13.25;11.50;;;;;;;2.41;50.48;93534.84;1713403;82;21084;-49
2022/04/05 01:33:19;;;;;;;12.70;10.20;;;;;;;2.42;50.34;93530.36;1713941;82;21117;-50
2022/04/05 01:35:46;;;;;;;11.95;9.98;;;;;;;2.42;50.12;93529.58;1712332;82;21887;-55
2022/04/05 01:38:14;;;;;;;11.12;9.00;;;;;;;2.44;50.22;93523.91;1712126;82;20986;-49
2022/04/05 01:40:42;;;;;;;11.22;10.13;;;;;;;2.47;50.25;93515.52;1714342;82;21014;-56
2022/04/05 01:43:09;;;;;;;15.95;9.83;;;;;;;2.49;49.92;93528.06;1717080;82;21243;-49
2022/04/05 01:45:36;;;;;;;10.85;9.75;;;;;;;2.50;50.24;93521.45;1737004;82;21010;-48
2022/04/05 01:48:04;;;;;;;12.90;11.55;;;;;;;2.50;50.32;93508.63;1724656;81;21214;-50
2022/04/05 01:50:32;;;;;;;10.15;9.13;;;;;;;2.47;50.35;93499.23;1717198;82;21084;-50
2022/04/05 01:53:00;;;;;;;10.63;9.53;;;;;;;2.48;50.20;93489.91;1737868;81;20950;-49
2022/04/05 01:55:27;;;;;;;13.53;10.65;;;;;;;2.50;50.48;93486.17;1724257;81;21451;-50
2022/04/05 01:57:55;;;;;;;11.68;9.83;;;;;;;2.47;50.37;93486.41;1737742;81;21026;-50
2022/04/05 02:00:22;;;;;;;12.95;11.20;;;;;;;2.48;50.45;93482.52;1724984;82;21259;-50
2022/04/05 02:02:49;;;;;;;12.93;11.63;;;;;;;2.49;50.57;93492.17;1741119;82;21058;-49
2022/04/05 02:05:17;;;;;;;12.90;10.60;;;;;;;2.51;50.65;93485.72;1701935;83;21004;-49
2022/04/05 02:07:45;;;;;;;14.15;11.88;;;;;;;2.53;50.66;93470.38;1717953;83;21022;-49
2022/04/05 02:10:14;;;;;;;16.25;13.22;;;;;;;2.55;50.73;93478.86;1680473;83;21051;-49
2022/04/05 02:12:43;;;;;;;14.38;11.75;;;;;;;2.57;50.77;93471.05;1693384;83;21357;-49
2022/04/05 02:15:15;;;;;;;14.80;11.28;;;;;;;2.56;50.84;93461.39;1704578;83;21075;-50
2022/04/05 02:17:51;;;;;;;13.53;11.35;;;;;;;2.55;50.93;93466.06;1700102;83;21055;-49
2022/04/05 02:20:21;;;;;;;12.28;10.98;;;;;;;2.57;51.02;93455.54;1692414;83;21008;-49
2022/04/05 02:22:49;;;;;;;11.97;10.78;;;;;;;2.61;50.76;93465.70;1663272;85;20992;-50
2022/04/05 02:25:18;;;;;;;12.53;11.22;;;;;;;2.65;50.83;93458.83;1672058;85;22340;-50
2022/04/05 02:27:47;;;;;;;13.75;12.20;;;;;;;2.66;51.00;93459.75;1678261;85;21110;-48
2022/04/05 02:30:18;;;;;;;14.25;10.10;;;;;;;2.67;51.29;93459.17;1683585;85;21526;-49
2022/04/05 02:32:47;;;;;;;20.55;18.55;;;;;;;2.65;51.54;93454.16;1658943;85;21540;-53
2022/04/05 02:35:15;;;;;;;12.47;10.72;;;;;;;2.66;51.56;93457.64;1689461;83;21040;-49
2022/04/05 02:37:44;;;;;;;11.88;10.58;;;;;;;2.67;51.17;93449.66;1698951;83;21174;-53
2022/04/05 02:40:13;;;;;;;13.15;10.78;;;;;;;2.75;51.25;93446.34;1666034;84;21953;-50
2022/04/05 02:42:42;;;;;;;13.10;11.35;;;;;;;2.81;51.30;93437.05;1694513;83;21082;-49
2022/04/05 02:45:11;;;;;;;20.37;14.03;;;;;;;2.85;51.07;93430.95;1698413;83;21084;-50
2022/04/05 02:47:39;;;;;;;14.83;11.40;;;;;;;2.91;51.01;93425.14;1703216;83;21729;-50
2022/04/05 02:50:08;;;;;;;20.72;14.23;;;;;;;2.97;50.95;93419.34;1688937;83;22146;-49
2022/04/05 02:52:36;;;;;;;21.62;12.93;;;;;;;3.02;51.07;93430.44;1694213;81;21037;-50
2022/04/05 02:55:06;;;;;;;11.25;10.03;;;;;;;3.05;51.14;93409.81;1694902;83;21021;-50
2022/04/05 02:57:40;;;;;;;15.72;10.75;;;;;;;3.09;51.50;93417.26;1691914;83;21077;-50
2022/04/05 03:00:11;;;;;;;10.78;9.68;;;;;;;3.12;51.02;93400.09;1673992;83;21043;-49
2022/04/05 03:02:39;;;;;;;24.70;14.60;;;;;;;3.20;51.18;93405.50;1704883;84;21751;-50
2022/04/05 03:05:08;;;;;;;14.28;12.07;;;;;;;3.28;51.27;93394.58;1698540;83;21065;-49
2022/04/05 03:07:37;;;;;;;14.53;12.47;;;;;;;3.31;51.36;93394.48;1699456;82;20951;-49
2022/04/05 03:10:10;;;;;;;11.57;10.48;;;;;;;3.37;51.23;93400.11;1698926;83;21445;-49
2022/04/05 03:12:39;;;;;;;17.87;11.67;;;;;;;3.43;51.32;93367.14;1694816;83;20963;-49
2022/04/05 03:15:09;;;;;;;21.17;16.17;;;;;;;3.48;51.28;93389.69;1705045;83;21172;-50
2022/04/05 03:17:45;;;;;;;12.35;10.78;;;;;;;3.50;51.43;93386.72;1700732;83;20954;-48
2022/04/05 03:20:14;;;;;;;11.95;9.70;;;;;;;3.54;51.69;93396.27;1707852;83;21115;-50
2022/04/05 03:22:44;;;;;;;16.12;11.43;;;;;;;3.57;51.76;93385.90;1709771;83;21116;-50
2022/04/05 03:25:11;;;;;;;13.03;10.55;;;;;;;3.59;52.06;93375.34;1692687;83;21426;-50
2022/04/05 03:27:41;;;;;;;14.98;12.37;;;;;;;3.58;52.28;93376.55;1710039;83;21087;-50
2022/04/05 03:30:10;;;;;;;15.78;13.13;;;;;;;3.59;52.38;93371.27;1716960;83;21030;-49
2022/04/05 03:32:39;;;;;;;16.05;13.20;;;;;;;3.56;52.25;93365.35;1697408;82;21004;-50
2022/04/05 03:35:08;;;;;;;12.68;11.38;;;;;;;3.58;52.28;93371.11;1667008;83;21016;-49
2022/04/05 03:37:36;;;;;;;20.43;11.18;;;;;;;3.58;52.33;93375.19;1705385;83;21079;-50
2022/04/05 03:40:06;;;;;;;12.50;11.15;;;;;;;3.60;52.70;93357.84;1708077;83;21152;-50
2022/04/05 03:42:34;;;;;;;14.93;11.00;;;;;;;3.63;52.75;93373.27;1692998;83;21055;-51
2022/04/05 03:45:03;;;;;;;20.65;12.82;;;;;;;3.66;52.73;93377.09;1692398;83;21125;-51
2022/04/05 03:47:32;;;;;;;18.87;14.28;;;;;;;3.68;52.81;93387.67;1697724;83;21132;-49
2022/04/05 03:50:02;;;;;;;12.60;11.25;;;;;;;3.71;52.90;93370.48;1696273;83;21004;-49
2022/04/05 03:52:31;;;;;;;19.15;12.23;;;;;;;3.75;52.88;93360.27;1701455;83;21104;-50
2022/04/05 03:54:59;;;;;;;14.28;10.60;;;;;;;3.74;53.16;93362.84;1685766;83;20982;-50
2022/04/05 03:57:27;;;;;;;13.72;11.95;;;;;;;3.72;53.86;93366.56;1700810;82;21103;-51
2022/04/05 03:59:56;;;;;;;23.12;13.68;;;;;;;3.72;54.06;93381.52;1698140;83;21048;-49
2022/04/05 04:02:25;;;;;;;16.10;13.10;;;;;;;3.68;54.44;93380.88;1688210;83;21040;-51
2022/04/05 04:04:53;;;;;;;21.33;13.28;;;;;;;3.67;54.49;93391.59;1692951;82;21125;-50
2022/04/05 04:07:21;;;;;;;21.20;16.15;;;;;;;3.66;54.79;93415.90;1685137;84;20989;-49
2022/04/05 04:09:49;;;;;;;16.45;14.68;;;;;;;3.65;54.88;93403.50;1680440;83;21452;-49
2022/04/05 04:12:18;;;;;;;44.23;37.58;;;;;;;3.66;54.87;93412.44;1674359;83;20997;-50
2022/04/05 04:14:46;;;;;;;44.50;32.05;;;;;;;3.66;54.87;93411.08;1687374;83;21041;-49
2022/04/05 04:17:15;;;;;;;38.42;34.43;;;;;;;3.66;55.08;93404.28;1686281;83;21164;-48
2022/04/05 04:19:42;;;;;;;21.95;19.40;;;;;;;3.64;55.41;93401.20;1684139;83;20983;-49
2022/04/05 04:22:09;;;;;;;15.35;13.85;;;;;;;3.64;55.40;93397.91;1684899;83;20989;-51
2022/04/05 04:24:39;;;;;;;19.82;16.07;;;;;;;3.62;55.57;93383.98;1687913;83;21049;-48
2022/04/05 04:27:14;;;;;;;20.27;17.20;;;;;;;3.62;55.58;93385.34;1692974;83;21008;-49
2022/04/05 04:29:39;;;;;;;18.85;15.23;;;;;;;3.62;55.48;93373.11;1703626;82;21402;-51
2022/04/05 04:32:07;;;;;;;16.48;13.30;;;;;;;3.64;55.62;93363.92;1706558;83;21055;-49
2022/04/05 04:34:36;;;;;;;19.98;15.25;;;;;;;3.65;55.79;93370.13;1690857;83;21036;-49
2022/04/05 04:37:05;;;;;;;20.85;17.12;;;;;;;3.64;56.03;93376.73;1674409;83;21072;-50
2022/04/05 04:39:34;;;;;;;15.08;13.15;;;;;;;3.65;56.04;93374.95;1711763;83;20938;-50
2022/04/05 04:42:04;;;;;;;21.35;17.30;;;;;;;3.69;56.04;93374.85;1686854;83;21244;-50
2022/04/05 04:44:31;;;;;;;25.08;21.48;;;;;;;3.72;56.12;93380.16;1712232;83;21697;-50
2022/04/05 04:46:58;;;;;;;21.37;16.70;;;;;;;3.73;56.32;93374.14;1701685;83;21107;-48
2022/04/05 04:49:26;;;;;;;16.17;14.43;;;;;;;3.70;56.36;93370.32;1655009;84;21590;-49
2022/04/05 04:51:53;;;;;;;16.40;14.70;;;;;;;3.68;56.46;93368.64;1679766;83;21019;-49
2022/04/05 04:54:20;;;;;;;27.10;19.70;;;;;;;3.71;56.51;93367.02;1713078;83;21218;-52
2022/04/05 04:56:49;;;;;;;21.52;17.60;;;;;;;3.72;56.48;93369.90;1697681;83;21010;-53
2022/04/05 04:59:18;;;;;;;17.25;14.70;;;;;;;3.74;56.51;93357.39;1693754;83;21074;-53
2022/04/05 05:01:47;;;;;;;22.02;17.52;;;;;;;3.75;56.49;93356.20;1693190;83;21029;-49
2022/04/05 05:04:15;;;;;;;20.17;13.60;;;;;;;3.76;56.42;93351.50;1709059;83;21489;-49
2022/04/05 05:06:42;;;;;;;23.45;15.78;;;;;;;3.77;56.19;93349.72;1703699;83;21154;-50
2022/04/05 05:09:10;;;;;;;18.25;15.05;;;;;;;3.79;55.98;93356.84;1688695;83;21561;-50
2022/04/05 05:11:38;;;;;;;29.20;22.15;;;;;;;3.82;55.72;93342.95;1685508;83;20986;-49
2022/04/05 05:14:06;;;;;;;18.10;16.23;;;;;;;3.85;55.84;93342.84;1705680;83;21024;-49
2022/04/05 05:16:34;;;;;;;21.37;16.67;;;;;;;3.86;55.88;93348.44;1712883;83;21098;-49
2022/04/05 05:19:02;;;;;;;20.60;15.40;;;;;;;3.86;55.75;93353.88;1708113;83;21780;-48
2022/04/05 05:21:29;;;;;;;25.50;19.70;;;;;;;3.89;55.58;93362.52;1712763;83;21044;-50
2022/04/05 05:23:58;;;;;;;27.17;20.37;;;;;;;3.94;55.51;93364.70;1705196;83;21016;-49
2022/04/05 05:26:26;;;;;;;25.97;18.37;;;;;;;3.98;55.53;93366.70;1696552;83;21055;-50
2022/04/05 05:28:53;;;;;;;17.85;13.95;;;;;;;4.01;55.22;93350.86;1701236;83;21063;-51
2022/04/05 05:31:20;;;;;;;13.90;11.18;;;;;;;4.06;55.01;93369.34;1702906;83;21108;-49
2022/04/05 05:33:50;;;;;;;18.37;14.75;;;;;;;4.10;54.69;93374.67;1712244;83;21015;-50
2022/04/05 05:36:17;;;;;;;15.23;12.63;;;;;;;4.13;54.79;93366.98;1709605;83;21016;-50
2022/04/05 05:38:45;;;;;;;16.05;12.88;;;;;;;4.14;54.66;93363.84;1660500;83;21496;-52
2022/04/05 05:41:12;;;;;;;15.70;13.15;;;;;;;4.15;54.70;93361.86;1693271;83;21095;-51
2022/04/05 05:43:41;;;;;;;14.47;12.40;;;;;;;4.15;54.84;93368.08;1696579;83;22094;-50
2022/04/05 05:46:08;;;;;;;19.70;13.05;;;;;;;4.18;54.53;93373.23;1691654;83;21035;-50
2022/04/05 05:48:37;;;;;;;25.40;16.10;;;;;;;4.27;54.40;93378.16;1699380;82;21512;-51
2022/04/05 05:51:05;;;;;;;38.30;23.52;;;;;;;4.45;54.22;93374.84;1684493;83;21454;-53
2022/04/05 05:53:33;;;;;;;23.00;15.10;;;;;;;4.63;53.70;93371.66;1661136;83;20933;-55
2022/04/05 05:56:01;;;;;;;20.12;14.10;;;;;;;4.81;53.31;93381.33;1686760;83;21553;-52
2022/04/05 05:58:29;;;;;;;17.50;13.85;;;;;;;5.00;52.24;93348.91;1681697;83;21096;-54
2022/04/05 06:00:58;;;;;;;15.00;12.78;;;;;;;5.19;52.01;93374.31;1685753;83;21081;-53
2022/04/05 06:03:25;;;;;;;18.10;13.45;;;;;;;5.34;51.82;93365.92;1678799;82;21008;-53
2022/04/05 06:05:54;;;;;;;18.00;12.82;;;;;;;5.49;51.22;93367.50;1673862;83;22144;-52
2022/04/05 06:08:22;;;;;;;23.25;16.12;;;;;;;5.61;50.77;93353.76;1675946;82;21154;-55
2022/04/05 06:10:49;;;;;;;26.00;20.48;;;;;;;5.69;50.85;93369.25;1674876;83;21570;-52
2022/04/05 06:13:16;;;;;;;24.95;15.63;;;;;;;5.74;50.52;93383.66;1685356;83;21675;-52
2022/04/05 06:15:45;;;;;;;24.87;19.35;;;;;;;5.67;50.44;93375.77;1695253;83;21039;-52
2022/04/05 06:18:12;;;;;;;16.40;12.30;;;;;;;5.54;50.30;93385.41;1702636;82;21018;-53
2022/04/05 06:20:40;;;;;;;18.30;16.40;;;;;;;5.55;50.69;93375.24;1698312;82;21165;-55
2022/04/05 06:23:09;;;;;;;17.48;15.70;;;;;;;5.65;50.87;93400.00;1676248;82;21092;-54
2022/04/05 06:25:38;;;;;;;21.40;13.18;;;;;;;5.81;50.25;93384.79;1681925;82;21106;-54
2022/04/05 06:28:08;;;;;;;14.50;13.00;;;;;;;5.96;50.09;93370.75;1664295;83;21141;-53
2022/04/05 06:30:38;;;;;;;19.67;15.53;;;;;;;6.11;49.73;93361.53;1696652;82;21595;-52
2022/04/05 06:33:16;;;;;;;23.22;17.75;;;;;;;6.16;49.37;93354.09;1680700;83;21053;-52
2022/04/05 06:35:47;;;;;;;16.73;12.65;;;;;;;6.16;49.79;93349.26;1679871;82;21129;-53
2022/04/05 06:38:18;;;;;;;29.25;18.67;;;;;;;6.16;49.48;93373.83;1702230;83;21005;-51
2022/04/05 06:40:46;;;;;;;31.68;22.50;;;;;;;6.14;49.46;93353.05;1695302;82;21618;-54
2022/04/05 06:43:16;;;;;;;23.92;16.17;;;;;;;6.07;49.40;93347.27;1653495;85;21201;-53
2022/04/05 06:45:45;;;;;;;14.65;12.68;;;;;;;5.98;49.61;93343.14;1678072;82;21021;-53
2022/04/05 06:48:13;;;;;;;19.20;15.75;;;;;;;5.91;49.74;93350.26;1695711;82;21630;-51
2022/04/05 06:50:41;;;;;;;19.12;15.70;;;;;;;5.88;49.69;93343.57;1689318;82;21008;-54
2022/04/05 06:53:09;;;;;;;16.93;13.25;;;;;;;5.83;49.48;93344.17;1675034;82;21567;-52
2022/04/05 06:55:37;;;;;;;12.95;10.63;;;;;;;5.78;49.99;93339.28;1690387;82;21087;-52
2022/04/05 06:58:06;;;;;;;13.40;11.15;;;;;;;5.72;49.43;93324.11;1683595;82;22013;-52
2022/04/05 07:00:36;;;;;;;17.87;11.18;;;;;;;5.72;49.74;93312.42;1683890;82;21078;-53
2022/04/05 07:03:07;;;;;;;15.98;10.85;;;;;;;5.82;49.57;93320.83;1688977;82;21077;-52
2022/04/05 07:05:34;;;;;;;14.33;11.08;;;;;;;5.94;49.34;93322.69;1682687;83;21126;-53
2022/04/05 07:08:02;;;;;;;13.98;11.88;;;;;;;6.02;48.61;93350.60;1702501;83;21083;-51
2022/04/05 07:10:31;;;;;;;19.37;13.78;;;;;;;6.10;48.78;93321.80;1701882;82;21102;-55
2022/04/05 07:12:59;;;;;;;16.85;12.43;;;;;;;6.23;49.33;93318.92;1681265;83;21108;-54
2022/04/05 07:15:31;;;;;;;18.80;10.38;;;;;;;6.49;48.37;93311.97;1685208;83;21097;-51
2022/04/05 07:17:58;;;;;;;12.37;10.13;;;;;;;6.81;47.42;93315.42;1702488;82;21098;-53
2022/04/05 07:20:26;;;;;;;12.30;10.98;;;;;;;7.10;46.72;93306.27;1670473;83;21176;-54
2022/04/05 07:22:55;;;;;;;13.40;10.58;;;;;;;7.36;46.30;93299.81;1699997;82;21063;-54
2022/04/05 07:25:23;;;;;;;11.83;9.08;;;;;;;7.63;46.42;93305.94;1695788;82;21115;-52
2022/04/05 07:27:52;;;;;;;15.10;10.78;;;;;;;7.85;44.89;93317.39;1703639;82;21090;-50
2022/04/05 07:30:20;;;;;;;16.23;9.73;;;;;;;7.85;45.09;93324.23;1684911;83;21065;-53
2022/04/05 07:32:48;;;;;;;12.98;9.23;;;;;;;7.83;45.46;93321.20;1699823;82;21071;-52
2022/04/05 07:35:15;;;;;;;17.27;11.05;;;;;;;7.83;45.39;93319.83;1685707;82;22457;-53
2022/04/05 07:37:43;;;;;;;10.75;9.65;;;;;;;7.81;45.73;93300.38;1703420;82;21105;-53
2022/04/05 07:40:11;;;;;;;12.05;9.15;;;;;;;7.76;45.63;93310.59;1693633;82;21018;-52
2022/04/05 07:42:40;;;;;;;14.07;9.73;;;;;;;7.64;46.21;93308.82;1676046;83;21882;-51
2022/04/05 07:45:08;;;;;;;18.30;12.53;;;;;;;7.53;46.16;93318.13;1697335;82;21026;-53
2022/04/05 07:47:36;;;;;;;58.85;28.77;;;;;;;7.39;46.66;93334.45;1698314;82;21835;-52
2022/04/05 07:50:05;;;;;;;20.25;14.00;;;;;;;7.24;47.42;93312.47;1673946;82;21088;-55
2022/04/05 07:52:33;;;;;;;14.23;11.65;;;;;;;7.19;48.27;93310.95;1714344;82;21523;-55
2022/04/05 07:55:00;;;;;;;18.73;10.82;;;;;;;7.16;48.39;93311.88;1697867;83;21101;-55
2022/04/05 07:57:28;;;;;;;11.95;10.20;;;;;;;7.13;48.42;93328.59;1695194;82;21046;-54
2022/04/05 07:59:58;;;;;;;9.05;8.15;;;;;;;7.08;48.59;93326.33;1655912;83;21173;-53
2022/04/05 08:02:25;;;;;;;23.52;13.00;;;;;;;6.99;48.86;93318.91;1694351;82;21543;-53
2022/04/05 08:04:53;;;;;;;10.15;9.10;;;;;;;6.93;49.55;93318.02;1703504;82;21012;-55
2022/04/05 08:07:21;;;;;;;14.25;10.75;;;;;;;6.91;49.48;93321.78;1691850;82;21168;-50
2022/04/05 08:09:48;;;;;;;13.08;11.05;;;;;;;6.88;49.83;93317.23;1698906;82;21156;-55
2022/04/05 08:12:17;;;;;;;26.55;12.68;;;;;;;6.91;49.92;93318.31;1685636;82;21077;-55
2022/04/05 08:14:45;;;;;;;13.00;10.72;;;;;;;6.96;49.96;93325.88;1678158;83;21101;-54
2022/04/05 08:17:13;;;;;;;16.23;14.33;;;;;;;7.03;49.92;93331.05;1692843;83;21057;-53
2022/04/05 08:19:42;;;;;;;10.32;9.28;;;;;;;7.09;50.16;93329.95;1688457;83;21019;-54
2022/04/05 08:22:10;;;;;;;17.45;11.35;;;;;;;7.17;50.26;93335.27;1686990;82;21067;-54
2022/04/05 08:24:41;;;;;;;12.03;10.80;;;;;;;7.20;49.98;93341.95;1684452;82;21124;-55
2022/04/05 08:27:10;;;;;;;17.42;11.00;;;;;;;7.21;49.93;93352.27;1692456;83;21034;-52
2022/04/05 08:29:41;;;;;;;15.30;9.68;;;;;;;7.22;50.26;93353.20;1677356;83;21139;-53
2022/04/05 08:32:08;;;;;;;12.85;10.53;;;;;;;7.20;50.05;93348.80;1667886;83;21056;-55
2022/04/05 08:34:41;;;;;;;16.57;11.78;;;;;;;7.14;50.13;93358.81;1701868;83;21066;-53
2022/04/05 08:37:08;;;;;;;19.62;11.45;;;;;;;7.15;50.34;93352.13;1712684;82;21167;-54
2022/04/05 08:39:35;;;;;;;11.97;10.50;;;;;;;7.22;50.20;93353.20;1693009;82;22068;-54
2022/04/05 08:42:07;;;;;;;14.43;11.85;;;;;;;7.28;49.78;93356.05;1696949;83;22300;-54
2022/04/05 08:44:34;;;;;;;12.55;11.25;;;;;;;7.28;49.75;93332.20;1706150;82;21427;-55
2022/04/05 08:47:03;;;;;;;15.90;12.85;;;;;;;7.41;49.75;93335.52;1705363;83;22115;-53
2022/04/05 08:49:33;;;;;;;13.70;10.48;;;;;;;7.61;49.67;93334.98;1679910;82;21117;-51
2022/04/05 08:52:02;;;;;;;16.73;10.13;;;;;;;7.84;49.00;93335.62;1684439;82;21149;-58
2022/04/05 08:54:30;;;;;;;44.03;32.85;;;;;;;8.03;48.23;93330.23;1698212;82;21337;-51
2022/04/05 08:56:57;;;;;;;35.95;22.60;;;;;;;8.24;48.02;93328.60;1703846;82;21019;-54
2022/04/05 08:59:24;;;;;;;28.40;22.93;;;;;;;8.39;47.58;93348.60;1675040;82;21073;-53
2022/04/05 09:01:53;;;;;;;30.02;22.58;;;;;;;8.45;47.39;93305.62;1638398;83;21994;-54
2022/04/05 09:04:20;;;;;;;15.93;11.75;;;;;;;8.55;47.40;93307.08;1682195;83;21116;-54
2022/04/05 09:06:48;;;;;;;10.38;9.25;;;;;;;8.65;46.87;93309.87;1671301;83;21070;-52
2022/04/05 09:09:17;;;;;;;14.45;10.60;;;;;;;8.74;46.21;93326.27;1680073;83;21677;-53
2022/04/05 09:11:56;;;;;;;11.48;9.25;;;;;;;8.76;46.02;93319.70;1681532;83;21111;-52
2022/04/05 09:14:25;;;;;;;16.20;10.45;;;;;;;8.73;46.05;93324.75;1672632;82;21264;-53
2022/04/05 09:17:09;;;;;;;14.98;9.93;;;;;;;8.78;46.97;93313.12;1697543;82;21156;-53
2022/04/05 09:19:42;;;;;;;10.45;8.63;;;;;;;8.86;46.02;93338.20;1623257;85;21073;-52
2022/04/05 09:22:12;;;;;;;13.70;10.15;;;;;;;8.80;46.08;93320.27;1596940;86;21095;-53
2022/04/05 09:24:43;;;;;;;17.30;10.95;;;;;;;8.76;46.19;93333.41;1645972;85;21555;-58
2022/04/05 09:27:12;;;;;;;22.43;10.33;;;;;;;8.74;46.31;93320.02;1647944;85;21183;-53
2022/04/05 09:29:49;;;;;;;13.13;10.03;;;;;;;8.77;46.01;93328.70;1650236;84;21128;-55
2022/04/05 09:32:33;;;;;;;12.85;9.60;;;;;;;8.79;45.94;93311.16;1632837;85;21578;-53
2022/04/05 09:35:01;;;;;;;15.55;9.43;;;;;;;8.84;46.26;93315.35;1630069;85;21098;-54
2022/04/05 09:37:29;;;;;;;12.55;8.28;;;;;;;8.85;46.17;93314.16;1652251;85;21094;-58
2022/04/05 09:40:16;;;;;;;11.43;9.53;;;;;;;8.76;45.74;93311.47;1695348;83;21153;-53
2022/04/05 09:43:08;;;;;;;12.80;8.13;;;;;;;8.76;46.10;93323.81;1697885;83;21075;-53
2022/04/05 09:46:05;;;;;;;25.95;8.23;;;;;;;8.92;45.65;93318.63;1695656;82;21074;-52
2022/04/05 09:48:35;;;;;;;12.05;8.95;;;;;;;9.06;45.49;93315.78;1694813;82;21748;-52
2022/04/05 09:51:10;;;;;;;18.05;9.95;;;;;;;9.24;45.49;93306.75;1691200;83;21105;-52
2022/04/05 09:53:50;;;;;;;12.03;8.63;;;;;;;9.49;44.63;93313.05;1684105;83;21142;-53
2022/04/05 09:56:26;;;;;;;10.65;9.55;;;;;;;9.54;44.14;93291.02;1687473;83;20992;-53
2022/04/05 09:59:04;;;;;;;16.73;9.83;;;;;;;9.55;44.36;93298.79;1690458;82;21055;-54
2022/04/05 10:01:34;;;;;;;10.13;7.45;;;;;;;9.63;44.08;93268.33;1704908;83;21046;-55
2022/04/05 10:04:08;;;;;;;14.35;9.70;;;;;;;9.73;43.26;93300.55;1700081;82;21127;-55
2022/04/05 10:06:43;;;;;;;13.13;8.73;;;;;;;9.93;43.62;93272.53;1667195;85;21893;-53
2022/04/05 10:09:10;;;;;;;32.93;9.53;;;;;;;10.09;43.51;93268.52;1694082;82;21092;-56
2022/04/05 10:11:40;;;;;;;12.15;7.72;;;;;;;10.31;43.15;93270.20;1683152;83;21063;-56
2022/04/05 10:14:10;;;;;;;11.20;8.70;;;;;;;10.39;42.64;93290.53;1685091;83;21337;-55
2022/04/05 10:16:38;;;;;;;9.78;8.05;;;;;;;10.52;42.76;93270.34;1683345;82;21096;-53
2022/04/05 10:19:10;;;;;;;7.85;6.55;;;;;;;10.63;41.38;93288.32;1711749;82;21513;-54
2022/04/05 10:21:41;;;;;;;12.33;9.00;;;;;;;10.60;41.26;93274.17;1690450;83;21163;-55
2022/04/05 10:24:10;;;;;;;14.68;8.53;;;;;;;10.74;41.82;93284.47;1636657;86;21101;-53
2022/04/05 10:26:39;;;;;;;9.93;6.33;;;;;;;11.01;41.31;93299.14;1669121;83;21078;-55
2022/04/05 10:29:09;;;;;;;28.30;7.87;;;;;;;11.13;40.04;93293.89;1706277;82;21046;-55
2022/04/05 10:31:54;;;;;;;37.30;26.00;;;;;;;11.22;40.18;93278.61;1713985;82;22139;-53
2022/04/05 10:34:36;;;;;;;21.02;18.82;;;;;;;11.29;39.87;93282.29;1713950;82;21050;-52
2022/04/05 10:37:17;;;;;;;13.45;8.55;;;;;;;11.44;40.63;93282.94;1644638;85;21081;-52
2022/04/05 10:40:00;;;;;;;16.40;7.97;;;;;;;11.66;39.60;93295.53;1683156;83;21151;-56
2022/04/05 10:42:39;;;;;;;7.92;6.60;;;;;;;11.73;39.70;93280.56;1680663;83;21022;-53
2022/04/05 10:45:26;;;;;;;7.78;6.53;;;;;;;11.94;38.80;93304.75;1705719;82;21550;-52
2022/04/05 10:47:59;;;;;;;8.83;7.47;;;;;;;12.06;38.83;93289.81;1679309;83;21541;-53
2022/04/05 10:50:26;;;;;;;8.65;5.95;;;;;;;12.09;38.99;93284.69;1702405;83;21028;-55
2022/04/05 10:53:25;;;;;;;12.00;5.78;;;;;;;12.10;37.97;93286.20;1685994;82;21052;-54
2022/04/05 10:56:11;;;;;;;12.60;7.60;;;;;;;12.01;38.33;93280.89;1654072;83;21044;-55
2022/04/05 10:58:56;;;;;;;10.43;7.70;;;;;;;11.94;38.63;93310.91;1686453;83;21209;-54
2022/04/05 11:01:28;;;;;;;9.28;6.28;;;;;;;11.91;38.74;93291.96;1688817;82;21106;-53
2022/04/05 11:04:19;;;;;;;8.33;6.78;;;;;;;12.18;38.51;93290.64;1688326;82;21072;-54
2022/04/05 11:07:09;;;;;;;10.40;6.75;;;;;;;12.41;37.96;93277.87;1682302;82;21158;-55
2022/04/05 11:09:46;;;;;;;6.33;5.72;;;;;;;12.75;37.25;93271.25;1688843;82;21096;-52
2022/04/05 11:12:23;;;;;;;10.75;6.30;;;;;;;12.99;36.64;93285.41;1696414;82;21526;-55
2022/04/05 11:14:58;;;;;;;8.03;5.12;;;;;;;13.06;36.50;93285.68;1699200;82;21087;-56
2022/04/05 11:17:28;;;;;;;11.55;6.10;;;;;;;13.29;35.33;93294.78;1694115;82;21042;-53
2022/04/05 11:19:57;;;;;;;6.85;5.12;;;;;;;13.29;36.09;93278.20;1696571;83;21929;-56
2022/04/05 11:22:28;;;;;;;7.47;5.22;;;;;;;13.32;35.59;93299.30;1700745;83;21060;-54
2022/04/05 11:25:06;;;;;;;15.83;6.03;;;;;;;13.51;35.78;93293.43;1686608;82;21831;-56
2022/04/05 11:27:47;;;;;;;11.05;8.50;;;;;;;13.83;35.04;93294.07;1692551;82;21061;-59
2022/04/05 11:30:30;;;;;;;11.05;7.47;;;;;;;13.97;34.55;93292.33;1701399;82;21033;-55
2022/04/05 11:33:12;;;;;;;7.20;5.97;;;;;;;14.20;34.44;93289.69;1694830;82;21129;-56
2022/04/05 11:35:46;;;;;;;6.87;5.42;;;;;;;14.29;34.41;93296.33;1684807;82;21023;-54
2022/04/05 11:38:29;;;;;;;10.55;6.05;;;;;;;14.43;34.00;93293.92;1695598;82;21255;-55
2022/04/05 11:41:28;;;;;;;7.17;5.17;;;;;;;14.40;33.98;93312.92;1653718;84;21115;-55
2022/04/05 11:44:01;;;;;;;9.00;5.97;;;;;;;14.02;33.89;93308.89;1686793;82;21055;-55
2022/04/05 11:46:40;;;;;;;15.20;6.90;;;;;;;13.64;35.06;93309.64;1663183;83;21032;-56
2022/04/05 11:49:11;;;;;;;10.43;6.80;;;;;;;13.44;35.15;93314.66;1663417;82;20995;-55